createdAt,value
2022-11-05T00:01:24.634Z,100789.81
2022-11-05T00:04:46.877Z,100774.97
2022-11-05T00:08:10.651Z,100792.78
2022-11-05T00:11:17.885Z,100778.97
2022-11-05T00:14:39.524Z,100778.06
2022-11-05T00:17:42.600Z,100777.78
2022-11-05T00:20:44.640Z,100785.75
2022-11-05T00:24:05.510Z,100782.84
2022-11-05T00:27:08.174Z,100782.56
2022-11-05T00:30:12.518Z,100789.00
2022-11-05T00:33:16.092Z,100796.75
2022-11-05T00:36:32.294Z,100774.31
2022-11-05T00:39:34.570Z,100798.81
2022-11-05T00:42:55.487Z,100778.69
2022-11-05T00:45:57.926Z,100783.72
2022-11-05T00:49:19.753Z,100768.03
2022-11-05T00:52:41.169Z,100778.56
2022-11-05T00:55:46.575Z,100757.13
2022-11-05T00:58:50.115Z,100767.84
2022-11-05T01:01:53.710Z,100773.72
2022-11-05T01:04:55.751Z,100772.69
2022-11-05T01:07:58.696Z,100757.66
2022-11-05T01:11:00.938Z,100758.69
2022-11-05T01:14:08.667Z,100768.88
2022-11-05T01:17:10.731Z,100764.84
2022-11-05T01:20:12.943Z,100769.06
2022-11-05T01:23:15.468Z,100772.81
2022-11-05T01:26:17.884Z,100768.72
2022-11-05T01:29:20.077Z,100763.09
2022-11-05T01:32:22.236Z,100756.00
2022-11-05T01:35:24.287Z,100758.72
2022-11-05T01:38:26.473Z,100756.09
2022-11-05T01:41:28.535Z,100759.44
2022-11-05T01:44:56.802Z,100777.06
2022-11-05T01:48:05.878Z,100760.75
2022-11-05T01:51:14.709Z,100775.38
2022-11-05T01:54:20.983Z,100770.09
2022-11-05T01:57:23.192Z,100723.56
2022-11-05T02:00:25.267Z,100781.63
2022-11-05T02:03:28.582Z,100764.22
2022-11-05T02:06:38.045Z,100772.47
2022-11-05T02:09:52.379Z,100778.34
2022-11-05T02:12:54.907Z,100781.03
2022-11-05T02:16:12.902Z,100783.47
2022-11-05T02:19:53.843Z,100789.34
2022-11-05T02:23:49.241Z,100791.41
2022-11-05T02:27:19.210Z,100792.78
2022-11-05T02:31:07.519Z,100763.66
2022-11-05T02:34:44.268Z,100789.03
2022-11-05T02:37:54.460Z,100786.72
2022-11-05T02:41:06.827Z,100792.78
2022-11-05T02:44:19.763Z,100800.91
2022-11-05T02:48:12.907Z,100789.41
2022-11-05T02:51:26.897Z,100797.91
2022-11-05T02:54:43.664Z,100797.91
2022-11-05T02:57:47.728Z,100788.25
2022-11-05T03:00:57.106Z,100792.25
2022-11-05T03:04:06.519Z,100788.59
2022-11-05T03:07:36.569Z,100791.78
2022-11-05T03:11:01.467Z,100779.56
2022-11-05T03:14:15.274Z,100792.97
2022-11-05T03:17:35.421Z,100802.13
2022-11-05T03:21:02.261Z,100792.50
2022-11-05T03:24:13.576Z,100784.38
2022-11-05T03:27:20.138Z,100797.75
2022-11-05T03:30:22.513Z,100794.75
2022-11-05T03:33:29.755Z,100796.88
2022-11-05T03:36:39.753Z,100787.84
2022-11-05T03:39:52.251Z,100792.41
2022-11-05T03:42:58.134Z,100799.44
2022-11-05T03:46:05.672Z,100794.75
2022-11-05T03:49:16.033Z,100784.97
2022-11-05T03:52:22.086Z,100788.31
2022-11-05T03:55:32.727Z,100764.44
2022-11-05T03:58:36.469Z,100794.38
2022-11-05T04:01:40.255Z,100796.81
2022-11-05T04:04:46.014Z,100798.59
2022-11-05T04:08:13.912Z,100800.84
2022-11-05T04:11:35.330Z,100805.47
2022-11-05T04:14:39.627Z,100821.19
2022-11-05T04:17:41.872Z,100822.47
2022-11-05T04:21:02.807Z,100807.09
2022-11-05T04:24:13.454Z,100774.88
2022-11-05T04:27:15.639Z,100815.00
2022-11-05T04:30:19.229Z,100794.88
2022-11-05T04:33:21.702Z,100815.00
2022-11-05T04:36:23.861Z,100806.41
2022-11-05T04:39:26.051Z,100819.00
2022-11-05T04:42:28.474Z,100801.69
2022-11-05T04:45:35.962Z,100812.59
2022-11-05T04:48:38.050Z,100798.31
2022-11-05T04:51:43.864Z,100809.69
2022-11-05T04:54:46.159Z,100820.03
2022-11-05T04:57:52.659Z,100821.25
2022-11-05T05:00:54.901Z,100811.44
2022-11-05T05:03:59.022Z,100831.59
2022-11-05T05:07:02.409Z,100833.75
2022-11-05T05:10:06.054Z,100830.53
2022-11-05T05:13:10.692Z,100812.28
2022-11-05T05:16:27.651Z,100823.84
2022-11-05T05:19:30.173Z,100800.94
2022-11-05T05:22:32.439Z,100819.25
2022-11-05T05:25:35.318Z,100820.09
2022-11-05T05:28:37.510Z,100817.56
2022-11-05T05:31:40.203Z,100821.31
2022-11-05T05:34:42.327Z,100828.25
2022-11-05T05:37:44.514Z,100832.69
2022-11-05T05:40:46.992Z,100851.97
2022-11-05T05:43:49.123Z,100850.97
2022-11-05T05:46:51.218Z,100859.75
2022-11-05T05:49:53.562Z,100847.19
2022-11-05T05:52:55.678Z,100846.91
2022-11-05T05:55:58.563Z,100855.22
2022-11-05T05:59:00.828Z,100866.66
2022-11-05T06:02:03.460Z,100869.72
2022-11-05T06:05:08.247Z,100890.06
2022-11-05T06:08:13.334Z,100891.75
2022-11-05T06:11:16.188Z,100891.38
2022-11-05T06:14:18.368Z,100885.75
2022-11-05T06:17:20.584Z,100895.59
2022-11-05T06:20:24.060Z,100909.84
2022-11-05T06:23:26.250Z,100923.38
2022-11-05T06:26:28.768Z,100905.81
2022-11-05T06:29:30.946Z,100910.88
2022-11-05T06:32:34.141Z,100910.19
2022-11-05T06:35:40.632Z,100908.31
2022-11-05T06:38:45.843Z,100906.94
2022-11-05T06:42:16.662Z,100914.78
2022-11-05T06:45:13.594Z,100941.00
2022-11-05T06:48:16.530Z,100943.31
2022-11-05T06:51:21.798Z,100924.69
2022-11-05T06:54:28.440Z,100928.66
2022-11-05T06:57:30.824Z,100941.66
2022-11-05T07:01:03.066Z,100950.88
2022-11-05T07:04:08.214Z,100937.88
2022-11-05T07:07:10.588Z,100947.13
2022-11-05T07:10:20.441Z,100939.78
2022-11-05T07:13:22.601Z,100942.69
2022-11-05T07:16:31.856Z,100928.00
2022-11-05T07:19:33.923Z,100929.47
2022-11-05T07:22:36.612Z,100948.56
2022-11-05T07:25:39.237Z,100939.75
2022-11-05T07:28:51.966Z,100949.38
2022-11-05T07:31:57.059Z,100954.63
2022-11-05T07:34:59.245Z,100954.63
2022-11-05T07:38:08.852Z,100925.00
2022-11-05T07:41:10.843Z,100946.34
2022-11-05T07:44:14.495Z,100946.13
2022-11-05T07:47:16.764Z,100946.34
2022-11-05T07:50:26.564Z,100959.13
2022-11-05T07:53:28.675Z,100955.53
2022-11-05T07:56:33.455Z,100939.19
2022-11-05T07:59:36.783Z,100959.91
2022-11-05T08:02:40.235Z,100932.25
2022-11-05T08:05:46.089Z,100949.88
2022-11-05T08:08:48.253Z,100939.63
2022-11-05T08:11:52.907Z,100948.19
2022-11-05T08:14:58.719Z,100940.03
2022-11-05T08:18:11.791Z,100949.69
2022-11-05T08:21:14.052Z,100941.53
2022-11-05T08:24:16.171Z,100942.19
2022-11-05T08:27:18.267Z,100924.75
2022-11-05T08:30:21.946Z,100934.75
2022-11-05T08:33:27.731Z,100951.75
2022-11-05T08:36:32.747Z,100945.88
2022-11-05T08:39:34.892Z,100959.69
2022-11-05T08:42:41.261Z,100955.53
2022-11-05T08:45:43.456Z,100928.97
2022-11-05T08:48:45.888Z,100951.19
2022-11-05T08:51:48.131Z,100936.84
2022-11-05T08:54:50.360Z,100922.56
2022-11-05T08:58:00.618Z,100916.31
2022-11-05T09:01:05.589Z,100937.47
2022-11-05T09:04:10.495Z,100945.19
2022-11-05T09:07:12.612Z,100936.97
2022-11-05T09:10:14.869Z,100934.66
2022-11-05T09:13:23.873Z,100929.84
2022-11-05T09:16:37.065Z,100953.53
2022-11-05T09:19:40.014Z,100968.19
2022-11-05T09:22:43.603Z,100967.34
2022-11-05T09:25:46.308Z,100952.50
2022-11-05T09:28:48.429Z,100956.47
2022-11-05T09:31:50.405Z,100952.31
2022-11-05T09:34:52.441Z,100961.09
2022-11-05T09:37:59.750Z,100972.22
2022-11-05T09:41:05.009Z,100963.63
2022-11-05T09:44:20.995Z,100968.44
2022-11-05T09:47:44.767Z,100957.78
2022-11-05T09:50:46.900Z,100955.25
2022-11-05T09:53:49.908Z,100954.84
2022-11-05T09:57:43.656Z,100946.03
2022-11-05T10:00:25.557Z,100942.91
2022-11-05T10:03:30.196Z,100961.78
2022-11-05T10:06:32.345Z,100979.19
2022-11-05T10:09:45.386Z,100968.28
2022-11-05T10:12:53.077Z,100981.69
2022-11-05T10:16:02.752Z,100966.16
2022-11-05T10:19:22.221Z,100978.75
2022-11-05T10:22:25.417Z,100963.03
2022-11-05T10:25:33.220Z,100988.81
2022-11-05T10:28:36.073Z,100968.25
2022-11-05T10:31:38.202Z,100981.66
2022-11-05T10:34:44.085Z,100974.97
2022-11-05T10:37:51.165Z,100987.56
2022-11-05T10:41:15.619Z,100987.13
2022-11-05T10:44:23.288Z,100990.44
2022-11-05T10:48:01.361Z,100989.41
2022-11-05T10:51:03.493Z,100985.00
2022-11-05T10:54:38.347Z,100982.88
2022-11-05T10:57:41.623Z,100992.31
2022-11-05T11:04:41.242Z,100967.16
2022-11-05T11:07:58.211Z,100982.28
2022-11-05T11:11:07.848Z,100982.69
2022-11-05T11:14:12.827Z,100992.31
2022-11-05T11:17:32.536Z,100990.88
2022-11-05T11:20:34.737Z,100996.47
2022-11-05T11:23:39.347Z,101000.00
2022-11-05T11:26:42.377Z,101003.31
2022-11-05T11:29:56.766Z,100985.75
2022-11-05T11:33:12.073Z,101005.03
2022-11-05T11:36:26.506Z,101004.75
2022-11-05T11:39:35.217Z,101011.25
2022-11-05T11:42:41.054Z,101003.53
2022-11-05T11:45:49.832Z,100993.88
2022-11-05T11:48:51.932Z,101003.47
2022-11-05T11:52:11.275Z,101007.47
2022-11-05T11:55:18.654Z,101011.19
2022-11-05T11:58:23.505Z,101009.75
2022-11-05T12:01:59.568Z,101014.34
2022-11-05T12:05:38.218Z,101021.91
2022-11-05T12:09:13.153Z,101011.22
2022-11-05T12:12:17.991Z,101004.78
2022-11-05T12:15:57.952Z,100997.19
2022-11-05T12:19:21.185Z,101023.38
2022-11-05T12:22:31.294Z,101020.84
2022-11-05T12:25:44.347Z,101021.91
2022-11-05T12:29:18.318Z,101015.19
2022-11-05T12:32:35.631Z,101023.97
2022-11-05T12:36:05.196Z,101040.69
2022-11-05T12:39:20.489Z,101023.94
2022-11-05T12:42:28.536Z,101028.75
2022-11-05T12:45:43.486Z,101013.03
2022-11-05T12:49:09.235Z,101042.13
2022-11-05T12:52:50.262Z,101032.09
2022-11-05T12:55:59.591Z,101035.69
2022-11-05T12:59:30.348Z,101038.41
2022-11-05T13:02:38.544Z,101047.19
2022-11-05T13:05:47.310Z,101031.66
2022-11-05T13:09:07.470Z,101043.97
2022-11-05T13:12:16.919Z,101041.88
2022-11-05T13:15:44.042Z,101040.56
2022-11-05T13:19:05.761Z,101046.56
2022-11-05T13:22:46.313Z,101056.84
2022-11-05T13:26:26.385Z,101060.66
2022-11-05T13:34:24.855Z,101050.22
2022-11-05T13:37:50.315Z,101052.72
2022-11-05T13:41:20.758Z,101056.88
2022-11-05T13:44:48.501Z,101063.50
2022-11-05T13:48:25.362Z,101070.81
2022-11-05T13:51:48.575Z,101075.44
2022-11-05T13:55:17.202Z,101078.34
2022-11-05T13:59:05.221Z,101077.09
2022-11-05T14:02:22.194Z,101080.69
2022-11-05T14:05:39.909Z,101076.06
2022-11-05T14:13:34.171Z,101088.13
2022-11-05T14:17:15.099Z,101101.03
2022-11-05T14:20:32.602Z,101105.22
2022-11-05T14:23:40.730Z,101081.66
2022-11-05T14:27:08.322Z,101094.28
2022-11-05T14:30:47.607Z,101110.03
2022-11-05T14:34:12.822Z,101126.34
2022-11-05T14:37:37.816Z,101108.53
2022-11-05T14:40:42.942Z,101121.53
2022-11-05T14:44:09.131Z,101114.63
2022-11-05T14:47:24.197Z,101079.69
2022-11-05T14:50:43.017Z,101115.59
2022-11-05T14:53:47.861Z,101113.59
2022-11-05T14:57:02.672Z,101121.41
2022-11-05T15:00:25.654Z,101120.06
2022-11-05T15:03:45.342Z,101128.91
2022-11-05T15:07:05.999Z,101128.53
2022-11-05T15:10:18.413Z,101125.28
2022-11-05T15:14:34.772Z,101014.81
2022-11-05T15:21:17.626Z,101129.88
2022-11-05T15:28:09.904Z,101126.66
2022-11-05T15:31:36.607Z,101126.66
2022-11-05T15:34:52.831Z,101116.38
2022-11-05T15:38:34.760Z,101149.16
2022-11-05T15:41:36.855Z,101150.44
2022-11-05T15:44:41.147Z,101146.50
2022-11-05T15:47:46.568Z,101158.81
2022-11-05T15:50:55.385Z,101160.22
2022-11-05T15:54:29.158Z,101160.22
2022-11-05T15:57:40.466Z,101143.84
2022-11-05T16:04:20.041Z,101176.53
2022-11-05T16:07:25.953Z,101179.50
2022-11-05T16:10:33.892Z,101179.41
2022-11-05T16:13:45.961Z,101182.47
2022-11-05T16:16:48.288Z,101175.53
2022-11-05T16:19:51.096Z,101196.88
2022-11-05T16:22:56.120Z,101187.75
2022-11-05T16:25:59.006Z,101185.03
2022-11-05T16:29:10.542Z,101205.22
2022-11-05T16:32:19.381Z,101219.06
2022-11-05T16:35:28.153Z,101220.38
2022-11-05T16:38:30.274Z,101191.66
2022-11-05T16:41:32.610Z,101227.03
2022-11-05T16:44:37.779Z,101210.25
2022-11-05T16:47:39.895Z,101239.38
2022-11-05T16:50:42.701Z,101224.44
2022-11-05T16:53:44.854Z,101235.84
2022-11-05T16:56:50.412Z,101246.13
2022-11-05T16:59:54.253Z,101251.09
2022-11-05T17:02:56.598Z,101257.47
2022-11-05T17:05:58.817Z,101250.09
2022-11-05T17:09:00.978Z,101251.03
2022-11-05T17:12:03.490Z,101272.66
2022-11-05T17:15:26.619Z,101271.19
2022-11-05T17:18:28.600Z,101263.22
2022-11-05T17:21:30.633Z,101280.44
2022-11-05T17:24:32.856Z,101243.84
2022-11-05T17:27:34.915Z,101263.09
2022-11-05T17:30:41.147Z,101289.34
2022-11-05T17:33:44.331Z,101280.66
2022-11-05T17:36:46.354Z,101278.75
2022-11-05T17:39:48.425Z,101291.50
2022-11-05T17:42:51.716Z,101294.03
2022-11-05T17:45:53.719Z,101286.25
2022-11-05T17:48:55.772Z,101293.28
2022-11-05T17:51:57.752Z,101290.34
2022-11-05T17:54:59.747Z,101285.59
2022-11-05T17:58:14.934Z,101303.75
2022-11-05T18:01:43.657Z,101302.06
2022-11-05T18:04:50.933Z,101308.03
2022-11-05T18:07:53.313Z,101314.50
2022-11-05T18:10:57.218Z,101307.06
2022-11-05T18:14:01.575Z,101309.75
2022-11-05T18:17:09.495Z,101316.41
2022-11-05T18:21:02.730Z,101322.25
2022-11-05T18:24:08.712Z,101316.66
2022-11-05T18:27:20.317Z,101324.28
2022-11-05T18:30:51.171Z,101342.44
2022-11-05T18:38:01.556Z,101337.00
2022-11-05T18:45:15.918Z,101364.25
2022-11-05T18:48:19.107Z,101346.88
2022-11-05T18:51:22.979Z,101361.47
2022-11-05T18:54:25.405Z,101360.69
2022-11-05T18:57:48.000Z,101370.44
2022-11-05T19:00:52.036Z,101377.09
2022-11-05T19:04:22.630Z,101380.22
2022-11-05T19:07:37.232Z,101356.09
2022-11-05T19:11:49.789Z,101396.16
2022-11-05T19:14:57.936Z,101379.31
2022-11-05T19:18:05.744Z,101396.09
2022-11-05T19:21:18.702Z,101379.34
2022-11-05T19:24:32.735Z,101404.72
2022-11-05T19:27:58.381Z,101401.44
2022-11-05T19:31:00.663Z,101414.09
2022-11-05T19:34:05.666Z,101416.69
2022-11-05T19:37:41.546Z,101425.63
2022-11-05T19:40:43.799Z,101410.16
2022-11-05T19:43:46.557Z,101432.84
2022-11-05T19:46:48.643Z,101423.84
2022-11-05T19:49:50.705Z,101417.47
2022-11-05T19:52:52.781Z,101436.97
2022-11-05T19:56:02.580Z,101426.72
2022-11-05T20:00:40.880Z,101442.28
2022-11-05T20:04:14.833Z,101365.44
2022-11-05T20:07:21.475Z,101372.84
2022-11-05T20:10:30.151Z,101441.34
2022-11-05T20:13:33.342Z,101434.66
2022-11-05T20:16:41.560Z,101455.66
2022-11-05T20:24:24.355Z,101462.00
2022-11-05T20:27:35.520Z,101458.75
2022-11-05T20:34:45.574Z,101456.03
2022-11-05T20:37:54.081Z,101440.66
2022-11-05T20:41:22.071Z,101462.50
2022-11-05T20:44:24.779Z,101459.19
2022-11-05T20:47:28.071Z,101435.41
2022-11-05T20:50:31.183Z,101457.19
2022-11-05T20:56:57.271Z,101469.69
2022-11-05T20:59:59.305Z,101476.69
2022-11-05T21:03:02.088Z,101465.06
2022-11-05T21:06:09.115Z,101465.91
2022-11-05T21:09:11.465Z,101471.66
2022-11-05T21:13:30.535Z,101477.78
2022-11-05T21:16:35.622Z,101474.03
2022-11-05T21:19:40.425Z,101475.38
2022-11-05T21:22:46.188Z,101477.06
2022-11-05T21:25:51.918Z,101490.94
2022-11-05T21:28:53.899Z,101471.34
2022-11-05T21:32:00.939Z,101473.69
2022-11-05T21:35:06.878Z,101492.09
2022-11-05T21:38:08.889Z,101489.41
2022-11-05T21:41:17.434Z,101495.91
2022-11-05T21:44:25.147Z,101493.34
2022-11-05T21:47:31.709Z,101491.47
2022-11-05T21:51:00.223Z,101497.00
2022-11-05T21:54:22.510Z,101489.69
2022-11-05T21:57:44.030Z,101490.38
2022-11-05T22:00:46.075Z,101486.03
2022-11-05T22:03:48.060Z,101484.09
2022-11-05T22:06:50.028Z,101486.41
2022-11-05T22:09:52.545Z,101497.56
2022-11-05T22:12:54.768Z,101497.38
2022-11-05T22:15:57.253Z,101492.69
2022-11-05T22:18:59.981Z,101494.53
2022-11-05T22:22:02.485Z,101486.00
2022-11-05T22:25:04.889Z,101508.13
2022-11-05T22:28:07.071Z,101500.84
2022-11-05T22:31:13.989Z,101514.50
2022-11-05T22:34:16.112Z,101509.47
2022-11-05T22:37:18.252Z,101477.59
2022-11-05T22:40:23.707Z,101498.50
2022-11-05T22:43:26.267Z,101486.81
2022-11-05T22:46:28.407Z,101518.03
2022-11-05T22:49:33.633Z,101517.69
2022-11-05T22:52:36.383Z,101507.19
2022-11-05T22:55:41.500Z,101513.97
2022-11-05T22:58:43.882Z,101507.84
2022-11-05T23:01:46.936Z,101516.69
2022-11-05T23:04:51.680Z,101520.41
2022-11-05T23:08:12.443Z,101507.00
2022-11-05T23:11:38.935Z,101514.69
2022-11-05T23:14:40.927Z,101501.56
2022-11-05T23:18:01.601Z,101523.75
2022-11-05T23:21:23.324Z,101515.59
2022-11-05T23:24:25.421Z,101514.66
2022-11-05T23:27:33.939Z,101520.19
2022-11-05T23:30:36.994Z,101519.16
2022-11-05T23:33:39.127Z,101518.69
2022-11-05T23:36:59.383Z,101522.44
2022-11-05T23:40:01.606Z,101512.09
2022-11-05T23:43:22.490Z,101510.97
2022-11-05T23:46:43.139Z,101517.25
2022-11-05T23:49:45.153Z,101520.59
2022-11-05T23:52:47.176Z,101502.53
2022-11-05T23:55:49.862Z,101510.13
2022-11-05T23:58:51.984Z,101515.00
